createdAt,value
2018-09-04T00:00:49.644Z,17.53
2018-09-04T00:01:49.700Z,17.53
2018-09-04T00:02:49.663Z,17.42
2018-09-04T00:03:49.703Z,17.5
2018-09-04T00:04:49.712Z,17.57
2018-09-04T00:05:49.676Z,17.47
2018-09-04T00:06:49.685Z,17.5
2018-09-04T00:07:50.066Z,17.47
2018-09-04T00:08:49.664Z,17.54
2018-09-04T00:09:49.672Z,17.52
2018-09-04T00:10:49.681Z,17.54
2018-09-04T00:11:49.685Z,17.5
2018-09-04T00:12:49.705Z,17.5
2018-09-04T00:13:49.709Z,17.53
2018-09-04T00:19:06.714Z,17.63
2018-09-04T00:19:19.191Z,17.65
2018-09-04T00:20:19.158Z,17.57
2018-09-04T00:21:19.200Z,17.56
2018-09-04T00:22:19.175Z,17.63
2018-09-04T00:23:19.212Z,17.6
2018-09-04T00:24:19.195Z,17.66
2018-09-04T00:25:19.169Z,17.68
2018-09-04T00:26:19.166Z,17.71
2018-09-04T00:27:19.215Z,17.71
2018-09-04T00:28:19.211Z,17.75
2018-09-04T00:29:19.198Z,17.75
2018-09-04T00:30:19.214Z,17.65
2018-09-04T00:31:19.216Z,17.68
2018-09-04T00:32:19.204Z,17.66
2018-09-04T00:33:19.174Z,17.75
2018-09-04T00:34:19.355Z,17.6
2018-09-04T00:35:19.221Z,17.59
2018-09-04T00:39:48.706Z,17.68
2018-09-04T00:40:48.726Z,17.68
2018-09-04T00:41:48.721Z,17.68
2018-09-04T00:42:48.732Z,17.69
2018-09-04T00:43:48.757Z,17.71
2018-09-04T00:44:48.706Z,17.68
2018-09-04T00:45:48.745Z,17.65
2018-09-04T00:46:48.724Z,17.73
2018-09-04T00:47:48.795Z,17.53
2018-09-04T00:48:48.718Z,17.57
2018-09-04T00:49:48.740Z,17.66
2018-09-04T00:50:48.707Z,17.65
2018-09-04T00:51:48.734Z,17.56
2018-09-04T00:52:48.695Z,17.53
2018-09-04T00:53:48.741Z,17.54
2018-09-04T00:58:18.317Z,17.5
2018-09-04T00:59:18.256Z,17.53
2018-09-04T01:00:18.258Z,17.54
2018-09-04T01:01:18.267Z,17.52
2018-09-04T01:02:18.274Z,17.54
2018-09-04T01:03:18.282Z,17.39
2018-09-04T01:04:18.284Z,17.56
2018-09-04T01:05:18.291Z,17.46
2018-09-04T01:06:18.265Z,17.53
2018-09-04T01:07:18.280Z,17.57
2018-09-04T01:08:18.281Z,17.56
2018-09-04T01:09:18.285Z,17.53
2018-09-04T01:10:18.291Z,17.49
2018-09-04T01:11:18.338Z,17.5
2018-09-04T01:12:18.317Z,17.53
2018-09-04T01:13:18.279Z,17.56
2018-09-04T01:14:18.280Z,17.54
2018-09-04T01:15:18.300Z,17.49
2018-09-04T01:16:18.297Z,17.53
2018-09-04T01:17:18.303Z,17.56
2018-09-04T01:18:19.675Z,17.59
2018-09-04T01:19:18.282Z,17.47
2018-09-04T01:20:18.289Z,17.6
2018-09-04T01:21:18.308Z,17.39
2018-09-04T01:23:22.862Z,17.49
2018-09-04T01:23:35.088Z,17.53
2018-09-04T01:24:35.075Z,17.35
2018-09-04T01:25:35.047Z,17.49
2018-09-04T01:26:35.070Z,17.35
2018-09-04T01:27:35.059Z,17.41
2018-09-04T01:28:35.817Z,17.41
2018-09-04T01:29:35.046Z,17.52
2018-09-04T01:30:35.079Z,17.49
2018-09-04T01:31:35.054Z,17.49
2018-09-04T01:32:35.058Z,17.39
2018-09-04T01:33:35.072Z,17.41
2018-09-04T01:34:35.106Z,17.44
2018-09-04T01:35:35.079Z,17.54
2018-09-04T01:36:35.090Z,17.53
2018-09-04T01:37:35.060Z,17.44
2018-09-04T01:38:39.299Z,17.57
2018-09-04T01:39:35.094Z,17.56
2018-09-04T01:40:35.078Z,17.5
2018-09-04T01:41:35.083Z,17.53
2018-09-04T01:42:35.089Z,17.53
2018-09-04T01:43:35.163Z,17.5
2018-09-04T01:44:35.084Z,17.59
2018-09-04T01:45:35.085Z,17.53
2018-09-04T01:46:35.091Z,17.54
2018-09-04T01:47:35.122Z,17.52
2018-09-04T01:48:35.129Z,17.53
2018-09-04T01:49:35.101Z,17.46
2018-09-04T01:50:35.119Z,17.54
2018-09-04T01:51:35.084Z,17.56
2018-09-04T01:52:35.094Z,17.53
2018-09-04T01:53:35.204Z,17.59
2018-09-04T01:54:35.103Z,17.59
2018-09-04T01:55:35.107Z,17.5
2018-09-04T01:56:35.171Z,17.53
2018-09-04T01:57:35.228Z,17.54
2018-09-04T01:58:35.141Z,17.53
2018-09-04T01:59:35.135Z,17.56
2018-09-04T02:00:35.113Z,17.56
2018-09-04T02:01:35.142Z,17.54
2018-09-04T02:02:35.118Z,17.54
2018-09-04T02:03:35.161Z,17.6
2018-09-04T02:08:53.143Z,17.47
2018-09-04T02:09:05.856Z,17.5
2018-09-04T02:10:05.750Z,17.53
2018-09-04T02:11:05.721Z,17.54
2018-09-04T02:12:05.726Z,17.53
2018-09-04T02:13:05.733Z,17.54
2018-09-04T02:14:05.840Z,17.52
2018-09-04T02:15:05.721Z,17.57
2018-09-04T02:16:05.718Z,17.59
2018-09-04T02:17:05.766Z,17.52
2018-09-04T02:18:05.731Z,17.49
2018-09-04T02:19:05.771Z,17.6
2018-09-04T02:20:05.791Z,17.56
2018-09-04T02:21:05.785Z,17.65
2018-09-04T02:22:05.758Z,17.6
2018-09-04T02:23:05.768Z,17.56
2018-09-04T02:24:05.744Z,17.6
2018-09-04T02:25:05.898Z,17.6
2018-09-04T02:26:05.753Z,17.69
2018-09-04T02:27:05.926Z,17.63
2018-09-04T02:28:05.733Z,17.63
2018-09-04T02:29:05.769Z,17.59
2018-09-04T02:30:05.780Z,17.63
2018-09-04T02:31:05.752Z,17.68
2018-09-04T02:32:05.754Z,17.66
2018-09-04T02:33:05.946Z,17.68
2018-09-04T02:34:05.806Z,17.69
2018-09-04T02:39:23.604Z,17.59
2018-09-04T02:39:35.805Z,17.56
2018-09-04T02:40:35.809Z,17.68
2018-09-04T02:41:35.793Z,17.66
2018-09-04T02:42:35.822Z,17.57
2018-09-04T02:43:35.796Z,17.65
2018-09-04T02:44:35.808Z,17.73
2018-09-04T02:45:35.843Z,17.52
2018-09-04T02:46:35.815Z,17.52
2018-09-04T02:47:35.827Z,17.5
2018-09-04T02:48:35.793Z,17.54
2018-09-04T02:49:35.811Z,17.56
2018-09-04T02:50:35.808Z,17.56
2018-09-04T02:51:35.811Z,17.5
2018-09-04T02:52:35.788Z,17.53
2018-09-04T02:53:52.655Z,17.42
2018-09-04T02:54:52.595Z,17.42
2018-09-04T02:55:52.574Z,17.42
2018-09-04T02:56:52.537Z,17.5
2018-09-04T02:57:52.547Z,17.42
2018-09-04T02:58:52.555Z,17.41
2018-09-04T02:59:52.561Z,17.41
2018-09-04T03:05:10.038Z,17.49
2018-09-04T03:05:22.230Z,17.5
2018-09-04T03:06:22.194Z,17.38
2018-09-04T03:07:22.214Z,17.39
2018-09-04T03:08:22.202Z,17.41
2018-09-04T03:09:22.214Z,17.46
2018-09-04T03:10:22.229Z,17.44
2018-09-04T03:11:22.187Z,17.35
2018-09-04T03:12:22.200Z,17.37
2018-09-04T03:13:22.467Z,17.44
2018-09-04T03:14:22.207Z,17.44
2018-09-04T03:15:22.228Z,17.44
2018-09-04T03:16:22.266Z,17.38
2018-09-04T03:17:22.296Z,17.41
2018-09-04T03:18:22.935Z,17.35
2018-09-04T03:19:22.208Z,17.39
2018-09-04T03:20:22.225Z,17.46
2018-09-04T03:21:22.220Z,17.44
2018-09-04T03:22:22.245Z,17.46
2018-09-04T03:23:22.314Z,17.44
2018-09-04T03:24:22.263Z,17.38
2018-09-04T03:25:22.247Z,17.35
2018-09-04T03:26:22.219Z,17.2
2018-09-04T03:27:24.181Z,17.32
2018-09-04T03:28:22.242Z,17.39
2018-09-04T03:29:22.239Z,17.22
2018-09-04T03:30:22.253Z,17.32
2018-09-04T03:31:22.255Z,17.32
2018-09-04T03:32:22.294Z,17.37
2018-09-04T03:33:22.266Z,17.3
2018-09-04T03:34:22.284Z,17.32
2018-09-04T03:35:22.687Z,17.27
2018-09-04T03:36:22.283Z,17.32
2018-09-04T03:37:22.289Z,17.38
2018-09-04T03:38:22.304Z,17.22
2018-09-04T03:39:22.269Z,17.23
2018-09-04T03:40:22.289Z,17.23
2018-09-04T03:41:22.254Z,17.34
2018-09-04T03:42:22.314Z,17.2
2018-09-04T03:43:22.550Z,17.3
2018-09-04T03:44:22.459Z,17.27
2018-09-04T03:45:22.284Z,17.19
2018-09-04T03:46:22.319Z,17.2
2018-09-04T03:47:22.502Z,17.28
2018-09-04T03:48:22.264Z,17.28
2018-09-04T03:49:22.263Z,17.27
2018-09-04T03:50:22.271Z,17.2
2018-09-04T03:51:22.281Z,17.22
2018-09-04T03:52:22.497Z,17.24
2018-09-04T03:53:22.290Z,17.24
2018-09-04T03:54:22.296Z,17.24
2018-09-04T03:55:22.271Z,17.2
2018-09-04T03:56:22.279Z,17.28
2018-09-04T03:57:22.285Z,17.27
2018-09-04T03:58:22.310Z,17.23
2018-09-04T03:59:22.344Z,17.22
2018-09-04T04:00:22.314Z,17.24
2018-09-04T04:01:22.378Z,17.3
2018-09-04T04:02:22.288Z,17.16
2018-09-04T04:03:22.290Z,17.22
2018-09-04T04:04:22.337Z,17.2
2018-09-04T04:05:22.304Z,17.27
2018-09-04T04:06:22.311Z,17.16
2018-09-04T04:07:22.316Z,17.24
2018-09-04T04:08:22.388Z,17.31
2018-09-04T04:09:22.675Z,17.19
2018-09-04T04:10:22.364Z,17.16
2018-09-04T04:11:22.332Z,17.23
2018-09-04T04:12:22.323Z,17.2
2018-09-04T04:13:22.323Z,17.22
2018-09-04T04:14:22.293Z,17.17
2018-09-04T04:15:22.718Z,17.24
2018-09-04T04:16:22.318Z,17.24
2018-09-04T04:17:22.523Z,17.13
2018-09-04T04:18:22.497Z,17.23
2018-09-04T04:19:22.331Z,17.2
2018-09-04T04:20:22.377Z,17.27
2018-09-04T04:21:22.417Z,17.23
2018-09-04T04:22:22.346Z,17.24
2018-09-04T04:23:22.319Z,17.14
2018-09-04T04:24:22.348Z,17.22
2018-09-04T04:25:22.370Z,17.13
2018-09-04T04:26:22.374Z,17.16
2018-09-04T04:27:22.347Z,17.2
2018-09-04T04:28:22.793Z,17.1
2018-09-04T04:29:22.324Z,17.1
2018-09-04T04:36:03.060Z,17.22
2018-09-04T04:37:03.034Z,17.24
2018-09-04T04:38:03.032Z,17.19
2018-09-04T04:39:03.031Z,17.22
2018-09-04T04:40:03.187Z,17.27
2018-09-04T04:41:03.058Z,17.24
2018-09-04T04:42:03.063Z,17.24
2018-09-04T04:43:03.026Z,17.16
2018-09-04T04:44:03.068Z,17.24
2018-09-04T04:45:03.073Z,17.23
2018-09-04T04:46:03.059Z,17.16
2018-09-04T04:47:03.074Z,17.22
2018-09-04T04:48:03.246Z,17.27
2018-09-04T04:49:03.081Z,17.16
2018-09-04T04:50:03.081Z,17.23
2018-09-04T04:51:03.082Z,17.16
2018-09-04T04:52:03.068Z,17.23
2018-09-04T04:53:03.102Z,17.3
2018-09-04T04:54:03.093Z,17.28
2018-09-04T04:55:03.163Z,17.23
2018-09-04T04:56:03.118Z,17.23
2018-09-04T04:57:03.123Z,17.28
2018-09-04T04:58:03.064Z,17.24
2018-09-04T04:59:03.076Z,17.22
2018-09-04T05:00:03.105Z,17.3
2018-09-04T05:01:03.798Z,17.32
2018-09-04T05:02:03.089Z,17.23
2018-09-04T05:03:03.129Z,17.27
2018-09-04T05:04:03.063Z,17.24
2018-09-04T05:05:03.069Z,17.27
2018-09-04T05:06:03.089Z,17.22
2018-09-04T05:07:03.122Z,17.22
2018-09-04T05:08:03.160Z,17.2
2018-09-04T05:09:03.093Z,17.09
2018-09-04T05:10:03.103Z,17.2
2018-09-04T05:15:20.308Z,17.27
2018-09-04T05:15:32.522Z,17.28
2018-09-04T05:16:32.605Z,17.35
2018-09-04T05:17:32.501Z,17.23
2018-09-04T05:18:32.542Z,17.32
2018-09-04T05:19:33.231Z,17.37
2018-09-04T05:20:32.522Z,17.34
2018-09-04T05:21:32.569Z,17.38
2018-09-04T05:22:32.609Z,17.41
2018-09-04T05:23:32.541Z,17.49
2018-09-04T05:24:32.596Z,17.35
2018-09-04T05:25:32.559Z,17.37
2018-09-04T05:26:32.537Z,17.49
2018-09-04T05:27:32.530Z,17.42
2018-09-04T05:28:32.550Z,17.42
2018-09-04T05:29:32.671Z,17.41
2018-09-04T05:30:32.553Z,17.37
2018-09-04T05:31:32.558Z,17.34
2018-09-04T05:32:32.564Z,17.34
2018-09-04T05:33:32.576Z,17.41
2018-09-04T05:34:32.543Z,17.42
2018-09-04T05:35:32.557Z,17.44
2018-09-04T05:36:32.619Z,17.49
2018-09-04T05:37:32.574Z,17.49
2018-09-04T05:38:32.584Z,17.5
2018-09-04T05:39:32.543Z,17.52
2018-09-04T05:40:32.560Z,17.47
2018-09-04T05:41:32.555Z,17.42
2018-09-04T05:42:32.577Z,17.49
2018-09-04T05:43:32.623Z,17.49
2018-09-04T05:44:32.542Z,17.47
2018-09-04T05:45:32.588Z,17.47
2018-09-04T05:46:32.565Z,17.41
2018-09-04T05:47:32.605Z,17.5
2018-09-04T05:48:32.565Z,17.5
2018-09-04T05:49:32.573Z,17.47
2018-09-04T05:54:49.759Z,17.5
2018-09-04T05:55:02.110Z,17.54
2018-09-04T05:56:02.007Z,17.54
2018-09-04T05:57:01.985Z,17.6
2018-09-04T05:58:01.998Z,17.65
2018-09-04T05:59:02.072Z,17.59
2018-09-04T06:00:02.066Z,17.69
2018-09-04T06:01:02.048Z,17.69
2018-09-04T06:02:02.052Z,17.72
2018-09-04T06:03:01.998Z,17.66
2018-09-04T06:04:02.030Z,17.59
2018-09-04T06:05:01.995Z,17.6
2018-09-04T06:06:02.038Z,17.63
2018-09-04T06:07:02.015Z,17.68
2018-09-04T06:08:01.993Z,17.53
2018-09-04T06:09:02.099Z,17.6
2018-09-04T06:10:02.035Z,17.72
2018-09-04T06:11:02.004Z,17.68
2018-09-04T06:12:02.071Z,17.68
2018-09-04T06:13:02.009Z,17.56
2018-09-04T06:14:02.125Z,17.68
2018-09-04T06:15:02.139Z,17.73
2018-09-04T06:16:02.001Z,17.72
2018-09-04T06:17:02.051Z,17.8
2018-09-04T06:18:02.009Z,17.72
2018-09-04T06:19:02.026Z,17.8
2018-09-04T06:20:02.227Z,17.75
2018-09-04T06:21:02.063Z,17.78
2018-09-04T06:22:02.039Z,17.8
2018-09-04T06:23:02.057Z,17.65
2018-09-04T06:24:02.028Z,17.66
2018-09-04T06:25:02.031Z,17.8
2018-09-04T06:26:02.040Z,17.75
2018-09-04T06:27:02.039Z,17.78
2018-09-04T06:28:02.047Z,17.78
2018-09-04T06:29:02.015Z,17.75
2018-09-04T06:30:02.466Z,17.73
2018-09-04T06:31:02.028Z,17.76
2018-09-04T06:32:02.052Z,17.79
2018-09-04T06:33:02.055Z,17.75
2018-09-04T06:34:02.134Z,17.75
2018-09-04T06:35:02.077Z,17.78
2018-09-04T06:40:19.260Z,17.76
2018-09-04T06:40:31.515Z,17.73
2018-09-04T06:41:31.658Z,17.73
2018-09-04T06:42:31.523Z,17.76
2018-09-04T06:43:31.514Z,17.82
2018-09-04T06:44:31.473Z,17.78
2018-09-04T06:45:31.472Z,17.84
2018-09-04T06:46:31.671Z,17.78
2018-09-04T06:47:31.527Z,17.75
2018-09-04T06:48:31.608Z,17.9
2018-09-04T06:49:31.476Z,17.79
2018-09-04T06:50:31.478Z,17.8
2018-09-04T06:51:31.498Z,17.8
2018-09-04T06:52:31.485Z,17.75
2018-09-04T06:53:31.499Z,17.78
2018-09-04T06:54:31.618Z,17.82
2018-09-04T06:55:31.466Z,17.82
2018-09-04T06:56:31.556Z,17.86
2018-09-04T06:57:31.484Z,17.87
2018-09-04T06:58:31.528Z,17.84
2018-09-04T06:59:31.609Z,17.84
2018-09-04T07:00:31.543Z,17.87
2018-09-04T07:01:31.482Z,17.82
2018-09-04T07:02:31.489Z,17.78
2018-09-04T07:03:31.488Z,17.87
2018-09-04T07:04:31.628Z,17.86
2018-09-04T07:05:31.720Z,17.91
2018-09-04T07:06:31.733Z,17.88
2018-09-04T07:07:31.612Z,17.97
2018-09-04T07:08:31.642Z,18.08
2018-09-04T07:09:31.528Z,17.91
2018-09-04T07:10:31.507Z,18.02
2018-09-04T07:11:31.545Z,17.95
2018-09-04T07:12:31.547Z,17.97
2018-09-04T07:13:31.562Z,18
2018-09-04T07:14:31.529Z,17.91
2018-09-04T07:15:31.551Z,17.91
2018-09-04T07:16:31.558Z,17.9
2018-09-04T07:17:31.568Z,17.94
2018-09-04T07:18:31.516Z,18.06
2018-09-04T07:19:31.536Z,18.02
2018-09-04T07:20:31.534Z,18.06
2018-09-04T07:21:31.544Z,18.05
2018-09-04T07:22:31.512Z,18.03
2018-09-04T07:23:31.555Z,18.05
2018-09-04T07:24:31.562Z,18.09
2018-09-04T07:25:31.537Z,18.03
2018-09-04T07:32:12.410Z,18.03
2018-09-04T07:33:12.339Z,18.09
2018-09-04T07:34:12.346Z,18.16
2018-09-04T07:35:12.348Z,18.18
2018-09-04T07:36:12.365Z,18.16
2018-09-04T07:37:12.426Z,17.97
2018-09-04T07:38:12.373Z,18.06
2018-09-04T07:39:12.343Z,18.08
2018-09-04T07:40:12.377Z,18.12
2018-09-04T07:41:12.353Z,18.16
2018-09-04T07:42:12.389Z,18.15
2018-09-04T07:43:12.400Z,18.13
2018-09-04T07:44:12.376Z,18.24
2018-09-04T07:45:12.409Z,18.13
2018-09-04T07:46:12.397Z,18.23
2018-09-04T07:47:12.389Z,18.21
2018-09-04T07:48:12.372Z,18.18
2018-09-04T07:49:12.364Z,18.24
2018-09-04T07:50:12.696Z,18.16
2018-09-04T07:51:12.380Z,18.28
2018-09-04T07:52:12.374Z,18.28
2018-09-04T07:53:12.481Z,18.19
2018-09-04T07:54:12.383Z,18.23
2018-09-04T07:55:12.484Z,18.33
2018-09-04T07:56:12.397Z,18.26
2018-09-04T07:57:12.399Z,18.26
2018-09-04T07:58:12.397Z,18.27
2018-09-04T07:59:12.399Z,18.26
2018-09-04T08:00:12.410Z,18.27
2018-09-04T08:01:12.482Z,18.3
2018-09-04T08:02:12.419Z,18.28
2018-09-04T08:03:12.394Z,18.33
2018-09-04T08:04:12.430Z,18.34
2018-09-04T08:05:12.419Z,18.36
2018-09-04T08:06:12.426Z,18.48
2018-09-04T08:07:12.427Z,18.45
2018-09-04T08:08:12.612Z,18.51
2018-09-04T08:09:12.403Z,18.51
2018-09-04T08:10:12.706Z,18.45
2018-09-04T08:11:12.414Z,18.55
2018-09-04T08:12:12.420Z,18.53
2018-09-04T08:13:12.492Z,18.58
2018-09-04T08:16:19.744Z,18.66
2018-09-04T08:16:32.227Z,18.61
2018-09-04T08:17:32.115Z,18.67
2018-09-04T08:18:32.289Z,18.67
2018-09-04T08:19:32.062Z,18.79
2018-09-04T08:20:32.351Z,18.67
2018-09-04T08:21:32.135Z,18.78
2018-09-04T08:22:32.198Z,18.73
2018-09-04T08:23:32.136Z,18.73
2018-09-04T08:24:32.127Z,18.78
2018-09-04T08:25:32.128Z,18.79
2018-09-04T08:26:32.167Z,18.76
2018-09-04T08:27:32.076Z,18.79
2018-09-04T08:28:32.094Z,18.7
2018-09-04T08:29:32.160Z,18.76
2018-09-04T08:30:32.095Z,18.79
2018-09-04T08:31:32.100Z,18.78
2018-09-04T08:32:32.187Z,18.82
2018-09-04T08:33:32.094Z,18.83
2018-09-04T08:34:32.083Z,18.85
2018-09-04T08:35:32.379Z,18.86
2018-09-04T08:36:32.165Z,18.82
2018-09-04T08:37:32.116Z,18.91
2018-09-04T08:38:32.116Z,18.82
2018-09-04T08:39:32.153Z,18.97
2018-09-04T08:40:32.123Z,18.91
2018-09-04T08:41:32.097Z,18.83
2018-09-04T08:42:32.108Z,18.97
2018-09-04T08:43:32.120Z,18.96
2018-09-04T08:44:32.121Z,18.96
2018-09-04T08:45:32.134Z,18.97
2018-09-04T08:46:32.140Z,19.01
2018-09-04T08:47:32.193Z,19
2018-09-04T08:48:32.111Z,19.08
2018-09-04T08:49:32.124Z,19.08
2018-09-04T08:50:32.286Z,19
2018-09-04T08:51:32.137Z,19.11
2018-09-04T08:52:32.149Z,19.17
2018-09-04T08:53:32.287Z,19.16
2018-09-04T08:54:32.114Z,19.2
2018-09-04T08:55:32.156Z,19.19
2018-09-04T08:56:32.129Z,19.3
2018-09-04T08:57:32.142Z,19.37
2018-09-04T08:58:32.248Z,19.32
2018-09-04T08:59:32.149Z,19.57
2018-09-04T09:00:32.155Z,19.66
2018-09-04T09:01:32.134Z,19.56
2018-09-04T09:02:32.135Z,19.74
2018-09-04T09:03:32.181Z,19.66
2018-09-04T09:04:32.161Z,19.78
2018-09-04T09:05:32.283Z,19.75
2018-09-04T09:06:32.166Z,19.74
2018-09-04T09:07:32.171Z,19.77
2018-09-04T09:08:32.215Z,19.75
2018-09-04T09:09:32.142Z,19.75
2018-09-04T09:10:32.157Z,19.77
2018-09-04T09:11:32.204Z,19.71
2018-09-04T09:12:32.168Z,19.75
2018-09-04T09:13:32.289Z,19.78
2018-09-04T09:14:32.185Z,19.77
2018-09-04T09:15:32.149Z,19.74
2018-09-04T09:16:32.199Z,19.74
2018-09-04T09:17:32.171Z,19.71
2018-09-04T09:18:32.185Z,19.74
2018-09-04T09:19:32.825Z,19.79
2018-09-04T09:20:32.226Z,19.79
2018-09-04T09:21:32.167Z,19.72
2018-09-04T09:22:32.174Z,19.81
2018-09-04T09:23:32.165Z,19.78
2018-09-04T09:24:32.173Z,19.87
2018-09-04T09:25:32.186Z,19.79
2018-09-04T09:26:32.186Z,19.77
2018-09-04T09:27:32.214Z,19.9
2018-09-04T09:28:32.205Z,19.87
2018-09-04T09:29:32.206Z,19.94
2018-09-04T09:30:32.195Z,19.84
2018-09-04T09:31:32.224Z,19.96
2018-09-04T09:32:32.189Z,19.93
2018-09-04T09:33:32.205Z,19.94
2018-09-04T09:34:32.202Z,19.93
2018-09-04T09:35:32.194Z,19.94
2018-09-04T09:36:32.341Z,20.03
2018-09-04T09:37:32.187Z,20.04
2018-09-04T09:42:01.246Z,20.24
2018-09-04T09:43:01.207Z,20.1
2018-09-04T09:44:01.239Z,20.26
2018-09-04T09:46:20.619Z,20.48
2018-09-04T09:47:20.637Z,20.56
2018-09-04T09:48:20.592Z,20.55
2018-09-04T09:49:20.596Z,20.71
2018-09-04T09:50:20.740Z,20.49
2018-09-04T09:51:20.625Z,20.67
2018-09-04T09:52:20.624Z,20.73
2018-09-04T09:53:20.927Z,20.8
2018-09-04T09:54:20.656Z,20.89
2018-09-04T09:55:20.636Z,20.8
2018-09-04T09:56:20.780Z,20.8
2018-09-04T09:57:20.652Z,20.8
2018-09-04T09:58:20.595Z,20.8
2018-09-04T09:59:20.651Z,20.75
2018-09-04T10:00:20.802Z,20.8
2018-09-04T10:01:20.603Z,20.77
2018-09-04T10:02:20.618Z,20.74
2018-09-04T10:03:20.636Z,20.64
2018-09-04T10:04:20.664Z,20.73
2018-09-04T10:05:20.599Z,20.71
2018-09-04T10:06:20.618Z,20.75
2018-09-04T10:07:20.618Z,20.75
2018-09-04T10:08:20.697Z,20.92
2018-09-04T10:09:20.623Z,20.89
2018-09-04T10:10:20.785Z,20.92
2018-09-04T10:11:22.051Z,21.15
2018-09-04T10:12:20.648Z,21.37
2018-09-04T10:13:20.619Z,21.47
2018-09-04T10:14:20.626Z,21.54
2018-09-04T10:15:20.632Z,21.58
2018-09-04T10:16:20.685Z,21.54
2018-09-04T10:17:21.547Z,21.4
2018-09-04T10:18:20.716Z,21.47
2018-09-04T10:19:20.623Z,21.54
2018-09-04T10:20:20.671Z,21.45
2018-09-04T10:21:20.789Z,21.48
2018-09-04T10:22:20.644Z,21.59
2018-09-04T10:23:20.690Z,21.3
2018-09-04T10:24:20.658Z,21.51
2018-09-04T10:25:20.695Z,21.77
2018-09-04T10:26:20.758Z,21.72
2018-09-04T10:32:59.382Z,22.18
2018-09-04T10:33:59.351Z,22.28
2018-09-04T10:34:59.397Z,22.19
2018-09-04T10:35:59.395Z,22.14
2018-09-04T10:36:59.336Z,22.37
2018-09-04T10:37:59.338Z,22.46
2018-09-04T10:43:17.046Z,22.31
2018-09-04T10:43:29.688Z,22.47
2018-09-04T10:44:29.526Z,22.78
2018-09-04T10:45:29.273Z,22.93
2018-09-04T10:46:29.275Z,23.25
2018-09-04T10:47:29.285Z,23.17
2018-09-04T10:48:29.310Z,22.98
2018-09-04T10:49:29.313Z,23.21
2018-09-04T10:50:29.299Z,23.45
2018-09-04T10:51:29.304Z,23.51
2018-09-04T10:52:29.267Z,23.7
2018-09-04T10:53:29.273Z,23.28
2018-09-04T10:54:29.315Z,23.62
2018-09-04T10:55:29.430Z,23.74
2018-09-04T10:56:29.294Z,23.71
2018-09-04T10:57:29.318Z,23.45
2018-09-04T10:58:29.339Z,23.7
2018-09-04T10:59:29.281Z,23.73
2018-09-04T11:00:29.283Z,23.92
2018-09-04T11:01:29.297Z,23.73
2018-09-04T11:02:29.403Z,23.79
2018-09-04T11:03:29.339Z,23.92
2018-09-04T11:04:29.308Z,24.06
2018-09-04T11:05:29.323Z,24.07
2018-09-04T11:06:29.293Z,23.88
2018-09-04T11:07:29.296Z,23.91
2018-09-04T11:08:29.417Z,23.99
2018-09-04T11:09:29.531Z,24.14
2018-09-04T11:10:29.408Z,23.95
2018-09-04T11:11:29.335Z,23.77
2018-09-04T11:12:29.364Z,23.66
2018-09-04T11:13:29.384Z,23.55
2018-09-04T11:14:29.323Z,23.47
2018-09-04T11:15:29.319Z,23.79
2018-09-04T11:16:29.366Z,23.71
2018-09-04T11:17:29.365Z,23.77
2018-09-04T11:18:29.302Z,23.86
2018-09-04T11:19:29.344Z,24
2018-09-04T11:20:29.352Z,24.13
2018-09-04T11:21:29.354Z,24.13
2018-09-04T11:22:29.372Z,24.16
2018-09-04T11:23:29.337Z,24.29
2018-09-04T11:26:36.612Z,24.34
2018-09-04T11:26:49.357Z,24.37
2018-09-04T11:27:49.292Z,24.24
2018-09-04T11:28:49.316Z,24.09
2018-09-04T11:29:49.306Z,24.01
2018-09-04T11:30:49.505Z,24.14
2018-09-04T11:31:49.290Z,24.26
2018-09-04T11:32:49.374Z,24.07
2018-09-04T11:33:49.332Z,24.18
2018-09-04T11:34:49.308Z,24.25
2018-09-04T11:35:49.792Z,24.43
2018-09-04T11:36:49.324Z,24.06
2018-09-04T11:37:49.327Z,24.21
2018-09-04T11:38:49.316Z,24.13
2018-09-04T11:39:49.374Z,24.37
2018-09-04T11:40:49.381Z,24.5
2018-09-04T11:41:49.384Z,24.5
2018-09-04T11:42:49.327Z,24.85
2018-09-04T11:43:49.367Z,25.06
2018-09-04T11:44:49.349Z,25
2018-09-04T11:45:49.510Z,24.84
2018-09-04T11:46:49.347Z,24.99
2018-09-04T11:47:49.422Z,25.29
2018-09-04T11:48:49.334Z,25.33
2018-09-04T11:49:49.404Z,25.39
2018-09-04T11:51:54.046Z,25.16
2018-09-04T11:52:06.320Z,25.29
2018-09-04T11:53:06.295Z,25.48
2018-09-04T11:54:06.334Z,25.48
2018-09-04T11:55:06.304Z,25.49
2018-09-04T11:56:06.307Z,25.59
2018-09-04T11:57:06.322Z,25.59
2018-09-04T11:58:06.333Z,25.43
2018-09-04T11:59:06.317Z,25.58
2018-09-04T12:00:06.314Z,25.43
2018-09-04T12:01:06.309Z,25.63
2018-09-04T12:02:06.508Z,25.78
2018-09-04T12:03:06.348Z,25.7
2018-09-04T12:04:06.365Z,26.13
2018-09-04T12:05:06.416Z,26.31
2018-09-04T12:06:06.576Z,26.46
2018-09-04T12:07:06.395Z,26.46
2018-09-04T12:08:06.469Z,26.41
2018-09-04T12:09:06.770Z,26.78
2018-09-04T12:10:06.349Z,26.42
2018-09-04T12:11:06.386Z,26.53
2018-09-04T12:12:06.377Z,26.86
2018-09-04T12:17:24.232Z,27.23
2018-09-04T12:17:36.479Z,27.34
2018-09-04T12:18:36.947Z,27.28
2018-09-04T12:19:36.437Z,27.19
2018-09-04T12:20:36.479Z,27.34
2018-09-04T12:21:36.725Z,27.34
2018-09-04T12:22:36.477Z,27.33
2018-09-04T12:23:36.530Z,27.37
2018-09-04T12:24:36.601Z,27.18
2018-09-04T12:25:36.429Z,27.28
2018-09-04T12:26:36.589Z,27.44
2018-09-04T12:27:36.510Z,27.47
2018-09-04T12:28:36.457Z,27.5
2018-09-04T12:29:36.465Z,27.45
2018-09-04T12:30:36.428Z,27.5
2018-09-04T12:31:36.883Z,27.53
2018-09-04T12:32:36.446Z,27.68
2018-09-04T12:33:36.454Z,27.97
2018-09-04T12:34:36.850Z,27.68
2018-09-04T12:35:36.457Z,27.45
2018-09-04T12:36:36.558Z,27.73
2018-09-04T12:37:36.572Z,27.38
2018-09-04T12:38:36.481Z,27.22
2018-09-04T12:39:36.458Z,27.2
2018-09-04T12:40:36.470Z,26.71
2018-09-04T12:41:36.540Z,26.82
2018-09-04T12:42:36.656Z,26.76
2018-09-04T12:43:36.478Z,26.79
2018-09-04T12:44:36.485Z,26.55
2018-09-04T12:45:36.533Z,26.52
2018-09-04T12:46:36.466Z,26.48
2018-09-04T12:47:36.473Z,26.45
2018-09-04T12:48:36.733Z,26.53
2018-09-04T12:49:36.497Z,26.49
2018-09-04T12:50:36.492Z,26.23
2018-09-04T12:51:36.547Z,26.1
2018-09-04T12:52:36.846Z,26.06
2018-09-04T12:53:36.523Z,26.15
2018-09-04T12:54:36.602Z,26.19
2018-09-04T12:55:36.528Z,26.24
2018-09-04T12:56:36.677Z,26.18
2018-09-04T12:57:36.512Z,26.26
2018-09-04T12:58:36.510Z,26.46
2018-09-04T12:59:36.565Z,26.6
2018-09-04T13:00:36.677Z,26.59
2018-09-04T13:01:36.534Z,26.52
2018-09-04T13:02:36.501Z,26.55
2018-09-04T13:03:37.003Z,26.82
2018-09-04T13:04:36.528Z,26.88
2018-09-04T13:05:36.527Z,26.81
2018-09-04T13:06:36.531Z,26.73
2018-09-04T13:07:36.506Z,26.79
2018-09-04T13:08:36.510Z,26.82
2018-09-04T13:09:36.520Z,26.88
2018-09-04T13:23:30.633Z,27.68
2018-09-04T13:23:42.557Z,27.64
2018-09-04T13:24:42.613Z,27.75
2018-09-04T13:27:49.840Z,27.75
2018-09-04T13:28:01.790Z,27.6
2018-09-04T13:29:01.787Z,27.64
2018-09-04T13:30:01.924Z,27.45
2018-09-04T13:31:02.021Z,27.85
2018-09-04T13:32:01.923Z,27.93
2018-09-04T13:33:01.932Z,27.88
2018-09-04T13:34:01.966Z,27.9
2018-09-04T13:35:02.006Z,27.88
2018-09-04T13:36:02.010Z,27.93
2018-09-04T13:37:02.161Z,27.67
2018-09-04T13:38:01.961Z,27.3
2018-09-04T13:39:01.969Z,27.45
2018-09-04T13:40:02.283Z,27.29
2018-09-04T13:41:01.972Z,27.16
2018-09-04T13:42:01.998Z,27.45
2018-09-04T13:43:01.991Z,27.9
2018-09-04T13:44:01.962Z,27.85
2018-09-04T13:45:02.187Z,27.52
2018-09-04T13:46:02.041Z,27.48
2018-09-04T13:47:02.120Z,27.58
2018-09-04T13:48:01.970Z,27.45
2018-09-04T13:49:02.041Z,27.64
2018-09-04T13:50:01.972Z,27.81
2018-09-04T13:51:01.972Z,27.68
2018-09-04T13:52:01.978Z,27.63
2018-09-04T13:53:01.995Z,27.68
2018-09-04T13:54:01.992Z,27.58
2018-09-04T13:55:02.031Z,27.68
2018-09-04T13:56:01.972Z,27.67
2018-09-04T13:57:02.071Z,27.79
2018-09-04T13:58:01.981Z,27.81
2018-09-04T13:59:02.002Z,27.67
2018-09-04T14:00:01.993Z,27.66
2018-09-04T14:01:02.040Z,27.63
2018-09-04T14:02:03.445Z,27.82
2018-09-04T14:03:02.016Z,27.86
2018-09-04T14:04:01.992Z,27.64
2018-09-04T14:05:01.994Z,27.76
2018-09-04T14:06:02.008Z,27.75
2018-09-04T14:07:02.082Z,27.95
2018-09-04T14:08:02.046Z,28.06
2018-09-04T14:09:02.057Z,27.98
2018-09-04T14:10:01.996Z,27.98
2018-09-04T14:11:02.090Z,28.28
2018-09-04T14:12:02.149Z,28.18
2018-09-04T14:13:02.022Z,27.88